Allen, Kansas
Current Conditions -  °F | °C
As of 5:53 AM on Monday 26 Jan 2015 (Local Time) from KEMP Reporting Station
Clear Clear  
Wind Chill: 20°   Ceiling: Unl
Heat Index: 29°   Visibility: 9mi
Dew Point: 27°   Wind: 9mph
Humidity: 92%   Direction: 200°SSW
Pressure: 30.03"   Gusts: NA
Location:  38.66°N, 96.17°W
Report Text: KEMP 261153Z AUTO 20008KT 9SM CLR M02/M03 A3003 RMK AO2 SLP181 T10171028 11011 21044 56025
Loading
Personal Weather Stations






























Interactive Weather Map New forecast layout! Learn more

10-Day Weather Forecast

Advertisements
Track Severe Weather on mobile